sensor_id;sensor_type;location;lat;lon;timestamp;pressure;altitude;pressure_sealevel;temperature;humidity
9257;BME280;4665;51.368;6.782;2023-03-14T00:00:35;98818.22;;;10.72;100.00
9257;BME280;4665;51.368;6.782;2023-03-14T00:03:01;98813.09;;;10.71;100.00
9257;BME280;4665;51.368;6.782;2023-03-14T00:05:27;98810.25;;;10.72;100.00
9257;BME280;4665;51.368;6.782;2023-03-14T00:07:52;98803.25;;;10.71;100.00
9257;BME280;4665;51.368;6.782;2023-03-14T00:10:18;98786.47;;;10.71;100.00
9257;BME280;4665;51.368;6.782;2023-03-14T00:12:44;98770.91;;;10.68;100.00
9257;BME280;4665;51.368;6.782;2023-03-14T00:15:10;98767.22;;;10.69;100.00
9257;BME280;4665;51.368;6.782;2023-03-14T00:17:39;98765.38;;;10.69;100.00
9257;BME280;4665;51.368;6.782;2023-03-14T00:20:06;98755.31;;;10.65;100.00
9257;BME280;4665;51.368;6.782;2023-03-14T00:22:37;98774.59;;;10.67;100.00
9257;BME280;4665;51.368;6.782;2023-03-14T00:25:04;98781.56;;;10.74;100.00
9257;BME280;4665;51.368;6.782;2023-03-14T00:27:31;98787.28;;;10.78;100.00
9257;BME280;4665;51.368;6.782;2023-03-14T00:29:57;98805.53;;;10.74;100.00
9257;BME280;4665;51.368;6.782;2023-03-14T00:32:22;98814.72;;;10.72;100.00
9257;BME280;4665;51.368;6.782;2023-03-14T00:34:48;98834.22;;;10.79;100.00
9257;BME280;4665;51.368;6.782;2023-03-14T00:37:14;98864.28;;;10.60;100.00
9257;BME280;4665;51.368;6.782;2023-03-14T00:39:40;98852.13;;;10.37;100.00
9257;BME280;4665;51.368;6.782;2023-03-14T00:42:05;98857.34;;;10.10;100.00
9257;BME280;4665;51.368;6.782;2023-03-14T00:44:31;98862.00;;;10.02;100.00
9257;BME280;4665;51.368;6.782;2023-03-14T00:46:57;98864.00;;;9.93;100.00
9257;BME280;4665;51.368;6.782;2023-03-14T00:49:23;98839.78;;;9.81;100.00
9257;BME280;4665;51.368;6.782;2023-03-14T00:51:48;98849.78;;;9.73;100.00
9257;BME280;4665;51.368;6.782;2023-03-14T00:54:14;98837.66;;;9.63;100.00
9257;BME280;4665;51.368;6.782;2023-03-14T00:56:39;98838.00;;;9.54;100.00
9257;BME280;4665;51.368;6.782;2023-03-14T00:59:05;98833.25;;;9.49;100.00
9257;BME280;4665;51.368;6.782;2023-03-14T01:01:30;98841.41;;;9.41;100.00
9257;BME280;4665;51.368;6.782;2023-03-14T01:03:56;98845.84;;;9.34;100.00
9257;BME280;4665;51.368;6.782;2023-03-14T01:06:24;98852.03;;;9.41;100.00
9257;BME280;4665;51.368;6.782;2023-03-14T01:08:50;98852.38;;;9.31;100.00
9257;BME280;4665;51.368;6.782;2023-03-14T01:11:25;98855.44;;;9.35;100.00
9257;BME280;4665;51.368;6.782;2023-03-14T01:13:51;98849.72;;;9.31;100.00
9257;BME280;4665;51.368;6.782;2023-03-14T01:16:17;98847.72;;;9.40;100.00
9257;BME280;4665;51.368;6.782;2023-03-14T01:18:45;98848.91;;;9.31;100.00
9257;BME280;4665;51.368;6.782;2023-03-14T01:21:23;98840.13;;;9.37;100.00
9257;BME280;4665;51.368;6.782;2023-03-14T01:23:49;98852.44;;;9.38;100.00
9257;BME280;4665;51.368;6.782;2023-03-14T01:26:18;98842.03;;;9.43;100.00
9257;BME280;4665;51.368;6.782;2023-03-14T01:28:48;98837.09;;;9.40;100.00
9257;BME280;4665;51.368;6.782;2023-03-14T01:31:15;98838.88;;;9.33;100.00
9257;BME280;4665;51.368;6.782;2023-03-14T01:33:41;98837.88;;;9.34;100.00
9257;BME280;4665;51.368;6.782;2023-03-14T01:36:07;98834.59;;;9.32;100.00
9257;BME280;4665;51.368;6.782;2023-03-14T01:38:34;98829.28;;;9.32;100.00
9257;BME280;4665;51.368;6.782;2023-03-14T01:41:00;98816.13;;;9.23;100.00
9257;BME280;4665;51.368;6.782;2023-03-14T01:43:26;98823.22;;;9.16;100.00
9257;BME280;4665;51.368;6.782;2023-03-14T01:48:56;98813.69;;;9.22;100.00
9257;BME280;4665;51.368;6.782;2023-03-14T01:56:54;98815.66;;;9.13;100.00
9257;BME280;4665;51.368;6.782;2023-03-14T01:59:22;98813.19;;;9.12;100.00
9257;BME280;4665;51.368;6.782;2023-03-14T02:01:49;98820.50;;;9.10;100.00
9257;BME280;4665;51.368;6.782;2023-03-14T02:04:17;98824.66;;;9.12;100.00
9257;BME280;4665;51.368;6.782;2023-03-14T02:09:44;98803.41;;;9.12;100.00
9257;BME280;4665;51.368;6.782;2023-03-14T02:12:12;98799.94;;;9.18;100.00
9257;BME280;4665;51.368;6.782;2023-03-14T02:14:39;98805.91;;;9.20;100.00
9257;BME280;4665;51.368;6.782;2023-03-14T02:17:07;98805.91;;;9.20;100.00
9257;BME280;4665;51.368;6.782;2023-03-14T02:22:18;98812.88;;;9.21;100.00
9257;BME280;4665;51.368;6.782;2023-03-14T02:25:03;98821.25;;;9.25;100.00
9257;BME280;4665;51.368;6.782;2023-03-14T02:27:30;98807.78;;;9.26;100.00
9257;BME280;4665;51.368;6.782;2023-03-14T02:30:01;98816.56;;;9.27;100.00
9257;BME280;4665;51.368;6.782;2023-03-14T02:32:29;98811.94;;;9.36;100.00
9257;BME280;4665;51.368;6.782;2023-03-14T02:34:57;98826.22;;;9.35;100.00
9257;BME280;4665;51.368;6.782;2023-03-14T02:37:26;98832.16;;;9.37;100.00
9257;BME280;4665;51.368;6.782;2023-03-14T02:39:54;98824.81;;;9.39;100.00
9257;BME280;4665;51.368;6.782;2023-03-14T02:42:20;98816.84;;;9.39;100.00
9257;BME280;4665;51.368;6.782;2023-03-14T02:44:57;98801.09;;;9.37;100.00
9257;BME280;4665;51.368;6.782;2023-03-14T02:47:30;98809.66;;;9.33;100.00
9257;BME280;4665;51.368;6.782;2023-03-14T02:50:09;98806.84;;;9.41;100.00
9257;BME280;4665;51.368;6.782;2023-03-14T02:52:35;98808.47;;;9.42;100.00
9257;BME280;4665;51.368;6.782;2023-03-14T02:55:00;98806.66;;;9.42;100.00
9257;BME280;4665;51.368;6.782;2023-03-14T02:57:26;98804.38;;;9.39;100.00
9257;BME280;4665;51.368;6.782;2023-03-14T02:59:51;98806.22;;;9.39;100.00
9257;BME280;4665;51.368;6.782;2023-03-14T03:02:17;98809.06;;;9.37;100.00
9257;BME280;4665;51.368;6.782;2023-03-14T03:04:43;98805.00;;;9.41;100.00
9257;BME280;4665;51.368;6.782;2023-03-14T03:07:08;98784.34;;;9.37;100.00
9257;BME280;4665;51.368;6.782;2023-03-14T03:09:34;98790.69;;;9.36;100.00
9257;BME280;4665;51.368;6.782;2023-03-14T03:11:59;98776.75;;;9.34;100.00
9257;BME280;4665;51.368;6.782;2023-03-14T03:14:25;98771.88;;;9.37;100.00
9257;BME280;4665;51.368;6.782;2023-03-14T03:16:50;98772.72;;;9.38;100.00
9257;BME280;4665;51.368;6.782;2023-03-14T03:19:16;98777.00;;;9.39;100.00
9257;BME280;4665;51.368;6.782;2023-03-14T03:21:43;98772.91;;;9.36;100.00
9257;BME280;4665;51.368;6.782;2023-03-14T03:24:09;98758.97;;;9.34;100.00
9257;BME280;4665;51.368;6.782;2023-03-14T03:26:35;98766.19;;;9.40;100.00
9257;BME280;4665;51.368;6.782;2023-03-14T03:29:01;98759.66;;;9.43;100.00
9257;BME280;4665;51.368;6.782;2023-03-14T03:31:27;98774.19;;;9.47;100.00
9257;BME280;4665;51.368;6.782;2023-03-14T03:33:53;98768.88;;;9.47;100.00
9257;BME280;4665;51.368;6.782;2023-03-14T03:36:23;98762.31;;;9.43;100.00
9257;BME280;4665;51.368;6.782;2023-03-14T03:38:48;98771.69;;;9.39;100.00
9257;BME280;4665;51.368;6.782;2023-03-14T03:41:14;98764.69;;;9.31;100.00
9257;BME280;4665;51.368;6.782;2023-03-14T03:43:40;98784.75;;;9.34;100.00
9257;BME280;4665;51.368;6.782;2023-03-14T03:46:06;98777.41;;;9.36;100.00
9257;BME280;4665;51.368;6.782;2023-03-14T03:48:32;98780.81;;;9.30;100.00
9257;BME280;4665;51.368;6.782;2023-03-14T03:50:57;98769.19;;;9.31;100.00
9257;BME280;4665;51.368;6.782;2023-03-14T03:53:23;98775.09;;;9.26;100.00
9257;BME280;4665;51.368;6.782;2023-03-14T03:55:48;98764.22;;;9.21;100.00
9257;BME280;4665;51.368;6.782;2023-03-14T03:58:14;98765.22;;;9.20;100.00
9257;BME280;4665;51.368;6.782;2023-03-14T04:00:39;98754.78;;;9.18;100.00
9257;BME280;4665;51.368;6.782;2023-03-14T04:03:05;98763.38;;;9.20;100.00
9257;BME280;4665;51.368;6.782;2023-03-14T04:05:30;98767.50;;;9.23;100.00
9257;BME280;4665;51.368;6.782;2023-03-14T04:07:56;98769.72;;;9.19;100.00
9257;BME280;4665;51.368;6.782;2023-03-14T04:10:21;98775.34;;;9.10;100.00
9257;BME280;4665;51.368;6.782;2023-03-14T04:12:47;98776.09;;;8.97;100.00
9257;BME280;4665;51.368;6.782;2023-03-14T04:15:12;98777.50;;;8.93;100.00
9257;BME280;4665;51.368;6.782;2023-03-14T04:17:38;98767.44;;;8.88;100.00
9257;BME280;4665;51.368;6.782;2023-03-14T04:20:03;98766.75;;;8.79;100.00
9257;BME280;4665;51.368;6.782;2023-03-14T04:22:29;98758.94;;;8.71;100.00
9257;BME280;4665;51.368;6.782;2023-03-14T04:24:55;98751.94;;;8.63;100.00
9257;BME280;4665;51.368;6.782;2023-03-14T04:27:20;98748.22;;;8.58;100.00
9257;BME280;4665;51.368;6.782;2023-03-14T04:29:46;98760.22;;;8.54;100.00
9257;BME280;4665;51.368;6.782;2023-03-14T04:32:14;98758.59;;;8.53;100.00
9257;BME280;4665;51.368;6.782;2023-03-14T04:34:39;98758.34;;;8.48;100.00
9257;BME280;4665;51.368;6.782;2023-03-14T04:37:06;98765.22;;;8.42;100.00
9257;BME280;4665;51.368;6.782;2023-03-14T04:39:31;98764.13;;;8.36;100.00
9257;BME280;4665;51.368;6.782;2023-03-14T04:41:57;98753.91;;;8.33;100.00
9257;BME280;4665;51.368;6.782;2023-03-14T04:44:22;98752.72;;;8.21;100.00
9257;BME280;4665;51.368;6.782;2023-03-14T04:46:47;98759.06;;;8.20;100.00
9257;BME280;4665;51.368;6.782;2023-03-14T04:49:13;98751.84;;;8.14;100.00
9257;BME280;4665;51.368;6.782;2023-03-14T04:51:38;98757.59;;;8.17;100.00
9257;BME280;4665;51.368;6.782;2023-03-14T04:54:04;98744.91;;;8.13;100.00
9257;BME280;4665;51.368;6.782;2023-03-14T04:56:29;98739.22;;;8.16;100.00
9257;BME280;4665;51.368;6.782;2023-03-14T04:58:55;98736.47;;;8.24;100.00
9257;BME280;4665;51.368;6.782;2023-03-14T05:01:20;98735.84;;;8.07;100.00
9257;BME280;4665;51.368;6.782;2023-03-14T05:03:46;98729.72;;;8.07;100.00
9257;BME280;4665;51.368;6.782;2023-03-14T05:06:11;98735.22;;;8.05;100.00
9257;BME280;4665;51.368;6.782;2023-03-14T05:08:37;98719.88;;;8.00;100.00
9257;BME280;4665;51.368;6.782;2023-03-14T05:11:02;98718.88;;;8.01;100.00
9257;BME280;4665;51.368;6.782;2023-03-14T05:13:28;98720.50;;;8.02;100.00
9257;BME280;4665;51.368;6.782;2023-03-14T05:15:53;98728.03;;;7.99;100.00
9257;BME280;4665;51.368;6.782;2023-03-14T05:18:20;98720.00;;;7.92;100.00
9257;BME280;4665;51.368;6.782;2023-03-14T05:20:46;98723.47;;;7.93;100.00
9257;BME280;4665;51.368;6.782;2023-03-14T05:23:11;98724.50;;;7.92;100.00
9257;BME280;4665;51.368;6.782;2023-03-14T05:25:38;98715.09;;;7.89;100.00
9257;BME280;4665;51.368;6.782;2023-03-14T05:28:03;98713.03;;;7.91;100.00
9257;BME280;4665;51.368;6.782;2023-03-14T05:30:29;98698.97;;;7.91;100.00
9257;BME280;4665;51.368;6.782;2023-03-14T05:32:56;98713.31;;;7.96;100.00
9257;BME280;4665;51.368;6.782;2023-03-14T05:35:21;98701.13;;;8.02;100.00
9257;BME280;4665;51.368;6.782;2023-03-14T05:37:47;98685.16;;;7.95;100.00
9257;BME280;4665;51.368;6.782;2023-03-14T05:40:12;98705.25;;;8.05;100.00
9257;BME280;4665;51.368;6.782;2023-03-14T05:42:38;98689.53;;;8.03;100.00
9257;BME280;4665;51.368;6.782;2023-03-14T05:45:04;98676.22;;;7.96;100.00
9257;BME280;4665;51.368;6.782;2023-03-14T05:47:29;98679.50;;;7.98;100.00
9257;BME280;4665;51.368;6.782;2023-03-14T05:49:55;98695.41;;;7.98;100.00
9257;BME280;4665;51.368;6.782;2023-03-14T05:52:20;98698.66;;;8.00;100.00
9257;BME280;4665;51.368;6.782;2023-03-14T05:54:47;98695.84;;;8.02;100.00
9257;BME280;4665;51.368;6.782;2023-03-14T05:57:12;98696.47;;;8.04;100.00
9257;BME280;4665;51.368;6.782;2023-03-14T05:59:38;98693.44;;;8.07;100.00
9257;BME280;4665;51.368;6.782;2023-03-14T06:02:04;98691.06;;;8.12;100.00
9257;BME280;4665;51.368;6.782;2023-03-14T06:04:29;98697.41;;;8.18;100.00
9257;BME280;4665;51.368;6.782;2023-03-14T06:06:55;98687.69;;;8.25;100.00
9257;BME280;4665;51.368;6.782;2023-03-14T06:09:21;98691.16;;;8.26;100.00
9257;BME280;4665;51.368;6.782;2023-03-14T06:11:48;98691.97;;;8.26;100.00
9257;BME280;4665;51.368;6.782;2023-03-14T06:14:14;98690.78;;;8.29;100.00
9257;BME280;4665;51.368;6.782;2023-03-14T06:16:39;98682.63;;;8.30;100.00
9257;BME280;4665;51.368;6.782;2023-03-14T06:19:04;98690.22;;;8.33;100.00
9257;BME280;4665;51.368;6.782;2023-03-14T06:21:30;98694.13;;;8.37;100.00
9257;BME280;4665;51.368;6.782;2023-03-14T06:23:55;98693.13;;;8.38;100.00
9257;BME280;4665;51.368;6.782;2023-03-14T06:26:21;98693.38;;;8.43;100.00
9257;BME280;4665;51.368;6.782;2023-03-14T06:28:49;98683.81;;;8.42;100.00
9257;BME280;4665;51.368;6.782;2023-03-14T06:31:16;98697.78;;;8.58;100.00
9257;BME280;4665;51.368;6.782;2023-03-14T06:33:44;98700.44;;;8.58;100.00
9257;BME280;4665;51.368;6.782;2023-03-14T06:36:09;98695.13;;;8.58;100.00
9257;BME280;4665;51.368;6.782;2023-03-14T06:38:35;98699.69;;;8.64;100.00
9257;BME280;4665;51.368;6.782;2023-03-14T06:41:05;98695.81;;;8.67;100.00
9257;BME280;4665;51.368;6.782;2023-03-14T06:43:30;98692.72;;;8.63;100.00
9257;BME280;4665;51.368;6.782;2023-03-14T06:45:56;98693.56;;;8.63;100.00
9257;BME280;4665;51.368;6.782;2023-03-14T06:48:22;98693.13;;;8.60;100.00
9257;BME280;4665;51.368;6.782;2023-03-14T06:50:48;98697.22;;;8.62;100.00
9257;BME280;4665;51.368;6.782;2023-03-14T06:53:14;98709.09;;;8.67;100.00
9257;BME280;4665;51.368;6.782;2023-03-14T06:55:39;98701.13;;;8.67;100.00
9257;BME280;4665;51.368;6.782;2023-03-14T06:58:05;98698.09;;;8.70;100.00
9257;BME280;4665;51.368;6.782;2023-03-14T07:00:33;98696.63;;;8.67;100.00
9257;BME280;4665;51.368;6.782;2023-03-14T07:02:58;98709.97;;;8.74;100.00
9257;BME280;4665;51.368;6.782;2023-03-14T07:05:24;98706.97;;;8.83;100.00
9257;BME280;4665;51.368;6.782;2023-03-14T07:07:49;98709.84;;;8.82;100.00
9257;BME280;4665;51.368;6.782;2023-03-14T07:10:15;98703.16;;;8.93;100.00
9257;BME280;4665;51.368;6.782;2023-03-14T07:12:40;98707.19;;;8.89;100.00
9257;BME280;4665;51.368;6.782;2023-03-14T07:15:06;98704.81;;;8.94;100.00
9257;BME280;4665;51.368;6.782;2023-03-14T07:17:32;98713.75;;;8.93;100.00
9257;BME280;4665;51.368;6.782;2023-03-14T07:19:57;98701.13;;;8.95;100.00
9257;BME280;4665;51.368;6.782;2023-03-14T07:22:24;98712.66;;;9.09;100.00
9257;BME280;4665;51.368;6.782;2023-03-14T07:24:50;98722.00;;;9.04;100.00
9257;BME280;4665;51.368;6.782;2023-03-14T07:27:15;98714.28;;;9.10;100.00
9257;BME280;4665;51.368;6.782;2023-03-14T07:29:41;98719.22;;;9.13;100.00
9257;BME280;4665;51.368;6.782;2023-03-14T07:32:06;98707.16;;;9.10;100.00
9257;BME280;4665;51.368;6.782;2023-03-14T07:34:33;98728.44;;;9.23;100.00
9257;BME280;4665;51.368;6.782;2023-03-14T07:36:58;98726.19;;;9.20;100.00
9257;BME280;4665;51.368;6.782;2023-03-14T07:39:24;98722.16;;;9.24;100.00
9257;BME280;4665;51.368;6.782;2023-03-14T07:41:49;98720.47;;;9.23;100.00
9257;BME280;4665;51.368;6.782;2023-03-14T07:44:15;98723.53;;;9.20;100.00
9257;BME280;4665;51.368;6.782;2023-03-14T07:46:40;98724.94;;;9.16;100.00
9257;BME280;4665;51.368;6.782;2023-03-14T07:49:06;98737.00;;;9.19;100.00
9257;BME280;4665;51.368;6.782;2023-03-14T07:51:31;98733.94;;;9.15;100.00
9257;BME280;4665;51.368;6.782;2023-03-14T07:53:57;98736.00;;;9.20;100.00
9257;BME280;4665;51.368;6.782;2023-03-14T07:56:22;98740.91;;;9.23;100.00
9257;BME280;4665;51.368;6.782;2023-03-14T07:58:48;98734.56;;;9.17;100.00
9257;BME280;4665;51.368;6.782;2023-03-14T08:01:13;98738.22;;;9.16;100.00
9257;BME280;4665;51.368;6.782;2023-03-14T08:03:39;98751.91;;;9.13;100.00
9257;BME280;4665;51.368;6.782;2023-03-14T08:06:05;98751.31;;;9.18;100.00
9257;BME280;4665;51.368;6.782;2023-03-14T08:08:30;98752.13;;;9.18;100.00
9257;BME280;4665;51.368;6.782;2023-03-14T08:10:56;98755.00;;;9.17;100.00
9257;BME280;4665;51.368;6.782;2023-03-14T08:13:26;98752.34;;;9.17;100.00
9257;BME280;4665;51.368;6.782;2023-03-14T08:15:52;98762.13;;;9.16;100.00
9257;BME280;4665;51.368;6.782;2023-03-14T08:18:17;98754.78;;;9.18;100.00
9257;BME280;4665;51.368;6.782;2023-03-14T08:20:43;98759.34;;;9.24;100.00
9257;BME280;4665;51.368;6.782;2023-03-14T08:23:08;98757.31;;;9.26;100.00
9257;BME280;4665;51.368;6.782;2023-03-14T08:25:34;98757.31;;;9.26;100.00
9257;BME280;4665;51.368;6.782;2023-03-14T08:27:59;98765.91;;;9.29;100.00
9257;BME280;4665;51.368;6.782;2023-03-14T08:30:25;98770.19;;;9.30;100.00
9257;BME280;4665;51.368;6.782;2023-03-14T08:32:50;98764.47;;;9.33;100.00
9257;BME280;4665;51.368;6.782;2023-03-14T08:35:16;98761.00;;;9.32;100.00
9257;BME280;4665;51.368;6.782;2023-03-14T08:37:42;98763.03;;;9.30;100.00
9257;BME280;4665;51.368;6.782;2023-03-14T08:40:08;98772.84;;;9.30;100.00
9257;BME280;4665;51.368;6.782;2023-03-14T08:42:36;98787.97;;;9.29;100.00
9257;BME280;4665;51.368;6.782;2023-03-14T08:45:03;98776.75;;;9.34;100.00
9257;BME280;4665;51.368;6.782;2023-03-14T08:47:28;98788.78;;;9.30;100.00
9257;BME280;4665;51.368;6.782;2023-03-14T08:49:54;98766.28;;;9.25;100.00
9257;BME280;4665;51.368;6.782;2023-03-14T08:52:19;98782.63;;;9.22;100.00
9257;BME280;4665;51.368;6.782;2023-03-14T08:54:45;98778.47;;;9.13;100.00
9257;BME280;4665;51.368;6.782;2023-03-14T08:57:11;98784.19;;;9.10;100.00
9257;BME280;4665;51.368;6.782;2023-03-14T08:59:55;98797.69;;;9.15;100.00
9257;BME280;4665;51.368;6.782;2023-03-14T09:08:54;98802.59;;;9.18;100.00
9257;BME280;4665;51.368;6.782;2023-03-14T09:11:20;98807.91;;;9.18;100.00
9257;BME280;4665;51.368;6.782;2023-03-14T09:14:14;98828.81;;;9.28;100.00
9257;BME280;4665;51.368;6.782;2023-03-14T09:19:38;98888.56;;;8.68;100.00
9257;BME280;4665;51.368;6.782;2023-03-14T09:22:06;98898.13;;;8.32;100.00
9257;BME280;4665;51.368;6.782;2023-03-14T09:27:35;98889.13;;;7.82;100.00
9257;BME280;4665;51.368;6.782;2023-03-14T09:30:18;98903.47;;;7.73;100.00
9257;BME280;4665;51.368;6.782;2023-03-14T09:32:59;98934.34;;;7.66;100.00
9257;BME280;4665;51.368;6.782;2023-03-14T09:38:35;98948.38;;;7.51;100.00
9257;BME280;4665;51.368;6.782;2023-03-14T09:44:36;98973.25;;;7.50;100.00
9257;BME280;4665;51.368;6.782;2023-03-14T09:47:09;98987.97;;;7.53;100.00
9257;BME280;4665;51.368;6.782;2023-03-14T09:50:27;98985.16;;;7.54;100.00
9257;BME280;4665;51.368;6.782;2023-03-14T09:53:08;99007.97;;;7.55;100.00
9257;BME280;4665;51.368;6.782;2023-03-14T09:55:57;99010.22;;;7.44;100.00
9257;BME280;4665;51.368;6.782;2023-03-14T09:58:26;99029.53;;;7.52;100.00
9257;BME280;4665;51.368;6.782;2023-03-14T10:00:59;99027.19;;;7.34;100.00
9257;BME280;4665;51.368;6.782;2023-03-14T10:03:37;99046.00;;;7.40;100.00
9257;BME280;4665;51.368;6.782;2023-03-14T10:06:15;99052.50;;;7.37;100.00
9257;BME280;4665;51.368;6.782;2023-03-14T10:09:02;99073.81;;;7.44;100.00
9257;BME280;4665;51.368;6.782;2023-03-14T10:11:34;99076.03;;;7.32;100.00
9257;BME280;4665;51.368;6.782;2023-03-14T10:19:16;99112.66;;;7.51;100.00
9257;BME280;4665;51.368;6.782;2023-03-14T10:21:54;99111.78;;;7.36;100.00
9257;BME280;4665;51.368;6.782;2023-03-14T10:27:41;99141.97;;;7.19;100.00
9257;BME280;4665;51.368;6.782;2023-03-14T10:30:14;99157.84;;;7.27;100.00
9257;BME280;4665;51.368;6.782;2023-03-14T10:32:57;99168.81;;;7.15;100.00
9257;BME280;4665;51.368;6.782;2023-03-14T10:35:57;99175.78;;;7.08;100.00
9257;BME280;4665;51.368;6.782;2023-03-14T10:38:39;99197.31;;;7.05;100.00
9257;BME280;4665;51.368;6.782;2023-03-14T10:41:25;99222.03;;;6.89;100.00
9257;BME280;4665;51.368;6.782;2023-03-14T10:59:50;99307.31;;;6.09;100.00
9257;BME280;4665;51.368;6.782;2023-03-14T11:02:34;99307.94;;;6.03;100.00
9257;BME280;4665;51.368;6.782;2023-03-14T11:07:56;99315.84;;;5.95;100.00
9257;BME280;4665;51.368;6.782;2023-03-14T11:10:32;99353.88;;;6.02;100.00
9257;BME280;4665;51.368;6.782;2023-03-14T11:15:36;99362.34;;;6.14;100.00
9257;BME280;4665;51.368;6.782;2023-03-14T11:24:26;99393.63;;;6.27;100.00
9257;BME280;4665;51.368;6.782;2023-03-14T11:29:40;99405.22;;;6.34;100.00
9257;BME280;4665;51.368;6.782;2023-03-14T11:34:54;99424.50;;;6.26;100.00
9257;BME280;4665;51.368;6.782;2023-03-14T11:37:36;99432.31;;;6.28;100.00
9257;BME280;4665;51.368;6.782;2023-03-14T11:40:21;99441.78;;;6.39;100.00
9257;BME280;4665;51.368;6.782;2023-03-14T11:45:39;99458.81;;;6.44;100.00
9257;BME280;4665;51.368;6.782;2023-03-14T11:48:43;99448.69;;;6.31;100.00
9257;BME280;4665;51.368;6.782;2023-03-14T11:51:29;99465.38;;;6.32;100.00
9257;BME280;4665;51.368;6.782;2023-03-14T12:02:44;99514.56;;;6.17;100.00
9257;BME280;4665;51.368;6.782;2023-03-14T12:10:46;99536.19;;;6.12;100.00
9257;BME280;4665;51.368;6.782;2023-03-14T12:13:17;99542.22;;;6.22;100.00
9257;BME280;4665;51.368;6.782;2023-03-14T12:15:55;99542.97;;;6.41;100.00
9257;BME280;4665;51.368;6.782;2023-03-14T12:18:32;99555.41;;;6.48;100.00
9257;BME280;4665;51.368;6.782;2023-03-14T12:21:06;99552.91;;;6.47;100.00
9257;BME280;4665;51.368;6.782;2023-03-14T12:28:37;99574.53;;;6.77;100.00
9257;BME280;4665;51.368;6.782;2023-03-14T12:44:47;99639.41;;;6.28;100.00
9257;BME280;4665;51.368;6.782;2023-03-14T12:49:52;99665.81;;;6.02;100.00
9257;BME280;4665;51.368;6.782;2023-03-14T12:55:18;99684.53;;;5.91;100.00
9257;BME280;4665;51.368;6.782;2023-03-14T13:00:34;99701.38;;;6.08;100.00
9257;BME280;4665;51.368;6.782;2023-03-14T13:03:21;99700.66;;;6.16;100.00
9257;BME280;4665;51.368;6.782;2023-03-14T13:05:59;99719.38;;;6.22;100.00
9257;BME280;4665;51.368;6.782;2023-03-14T13:08:43;99725.72;;;6.29;100.00
9257;BME280;4665;51.368;6.782;2023-03-14T13:11:23;99724.38;;;6.25;100.00
9257;BME280;4665;51.368;6.782;2023-03-14T13:13:59;99721.03;;;6.23;100.00
9257;BME280;4665;51.368;6.782;2023-03-14T13:16:29;99742.34;;;6.22;100.00
9257;BME280;4665;51.368;6.782;2023-03-14T13:19:13;99767.94;;;6.03;100.00
9257;BME280;4665;51.368;6.782;2023-03-14T13:21:48;99782.00;;;5.48;100.00
9257;BME280;4665;51.368;6.782;2023-03-14T13:24:27;99791.00;;;5.28;100.00
9257;BME280;4665;51.368;6.782;2023-03-14T13:26:56;99799.25;;;5.15;100.00
9257;BME280;4665;51.368;6.782;2023-03-14T13:29:31;99806.47;;;5.13;100.00
9257;BME280;4665;51.368;6.782;2023-03-14T13:32:02;99795.06;;;5.13;100.00
9257;BME280;4665;51.368;6.782;2023-03-14T13:34:40;99804.78;;;5.12;100.00
9257;BME280;4665;51.368;6.782;2023-03-14T13:37:22;99796.84;;;5.22;100.00
9257;BME280;4665;51.368;6.782;2023-03-14T13:39:57;99812.06;;;5.38;100.00
9257;BME280;4665;51.368;6.782;2023-03-14T13:42:29;99817.72;;;5.53;100.00
9257;BME280;4665;51.368;6.782;2023-03-14T13:44:56;99812.34;;;5.72;100.00
9257;BME280;4665;51.368;6.782;2023-03-14T13:47:29;99804.72;;;5.69;100.00
9257;BME280;4665;51.368;6.782;2023-03-14T13:49:54;99817.53;;;5.91;100.00
9257;BME280;4665;51.368;6.782;2023-03-14T13:52:37;99830.22;;;6.16;100.00
9257;BME280;4665;51.368;6.782;2023-03-14T13:55:13;99826.34;;;6.10;100.00
9257;BME280;4665;51.368;6.782;2023-03-14T13:57:53;99830.19;;;6.43;100.00
9257;BME280;4665;51.368;6.782;2023-03-14T14:00:25;99832.81;;;6.61;100.00
9257;BME280;4665;51.368;6.782;2023-03-14T14:02:56;99839.13;;;6.86;100.00
9257;BME280;4665;51.368;6.782;2023-03-14T14:05:26;99839.25;;;7.03;100.00
9257;BME280;4665;51.368;6.782;2023-03-14T14:08:02;99850.19;;;7.26;100.00
9257;BME280;4665;51.368;6.782;2023-03-14T14:10:29;99847.16;;;7.47;100.00
9257;BME280;4665;51.368;6.782;2023-03-14T14:13:23;99841.81;;;7.65;100.00
9257;BME280;4665;51.368;6.782;2023-03-14T14:16:11;99836.50;;;7.65;100.00
9257;BME280;4665;51.368;6.782;2023-03-14T14:18:40;99845.53;;;7.88;100.00
9257;BME280;4665;51.368;6.782;2023-03-14T14:21:06;99862.06;;;7.74;100.00
9257;BME280;4665;51.368;6.782;2023-03-14T14:23:32;99859.59;;;7.80;100.00
9257;BME280;4665;51.368;6.782;2023-03-14T14:25:58;99870.91;;;7.91;100.00
9257;BME280;4665;51.368;6.782;2023-03-14T14:28:31;99873.06;;;7.87;100.00
9257;BME280;4665;51.368;6.782;2023-03-14T14:33:44;99887.41;;;7.68;100.00
9257;BME280;4665;51.368;6.782;2023-03-14T14:36:22;99894.66;;;7.66;100.00
9257;BME280;4665;51.368;6.782;2023-03-14T14:39:04;99896.84;;;7.45;100.00
9257;BME280;4665;51.368;6.782;2023-03-14T14:41:35;99902.03;;;7.28;100.00
9257;BME280;4665;51.368;6.782;2023-03-14T14:44:04;99899.44;;;7.10;96.37
9257;BME280;4665;51.368;6.782;2023-03-14T14:46:32;99915.00;;;7.13;100.00
9257;BME280;4665;51.368;6.782;2023-03-14T14:49:06;99911.31;;;7.06;100.00
9257;BME280;4665;51.368;6.782;2023-03-14T14:51:47;99931.34;;;6.91;86.58
9257;BME280;4665;51.368;6.782;2023-03-14T14:54:16;99928.41;;;6.76;94.20
9257;BME280;4665;51.368;6.782;2023-03-14T14:56:50;99949.50;;;6.86;100.00
9257;BME280;4665;51.368;6.782;2023-03-14T14:59:24;99948.06;;;6.91;100.00
9257;BME280;4665;51.368;6.782;2023-03-14T15:01:55;99971.31;;;6.98;97.95
9257;BME280;4665;51.368;6.782;2023-03-14T15:04:21;99978.13;;;7.18;100.00
9257;BME280;4665;51.368;6.782;2023-03-14T15:06:48;99975.47;;;7.18;98.79
9257;BME280;4665;51.368;6.782;2023-03-14T15:09:15;99994.25;;;7.25;99.00
9257;BME280;4665;51.368;6.782;2023-03-14T15:11:42;99994.75;;;7.28;81.36
9257;BME280;4665;51.368;6.782;2023-03-14T15:14:07;100003.38;;;7.30;80.02
9257;BME280;4665;51.368;6.782;2023-03-14T15:16:33;100021.09;;;7.30;88.05
9257;BME280;4665;51.368;6.782;2023-03-14T15:19:01;100028.44;;;7.18;96.97
9257;BME280;4665;51.368;6.782;2023-03-14T15:21:28;100028.66;;;7.07;95.81
9257;BME280;4665;51.368;6.782;2023-03-14T15:23:54;100038.28;;;7.08;94.90
9257;BME280;4665;51.368;6.782;2023-03-14T15:26:26;100048.34;;;7.04;95.40
9257;BME280;4665;51.368;6.782;2023-03-14T15:28:52;100055.34;;;6.95;98.98
9257;BME280;4665;51.368;6.782;2023-03-14T15:31:19;100056.44;;;6.75;92.16
9257;BME280;4665;51.368;6.782;2023-03-14T15:33:46;100061.50;;;6.68;100.00